Time;durP1;ratioP1;P1;durP2;ratioP2;P2;SDS_P1;SDS_P2;PMS_P1;PMS_P2;Temp;Humidity;BMP_temperature;BMP_pressure;BME280_temperature;BME280_humidity;BME280_pressure;Samples;Min_cycle;Max_cycle;Signal;HPM_P1;HPM_P2
2023/03/14 00:00:30;;;;;;;3.83;1.90;;;10.30;99.90;;;;;;5033478;28;20630;-62
2023/03/14 00:02:58;;;;;;;5.33;2.00;;;10.30;99.90;;;;;;5033627;28;20699;-63
2023/03/14 00:05:27;;;;;;;4.17;1.80;;;10.30;99.90;;;;;;5033639;28;20217;-63
2023/03/14 00:07:55;;;;;;;5.43;2.37;;;10.30;99.90;;;;;;5033797;28;20339;-63
2023/03/14 00:10:24;;;;;;;11.47;2.90;;;10.20;99.90;;;;;;5033288;28;20692;-63
2023/03/14 00:12:52;;;;;;;11.03;2.43;;;10.20;99.90;;;;;;5034444;28;20636;-63
2023/03/14 00:15:22;;;;;;;7.13;2.40;;;10.20;99.90;;;;;;5033412;28;20221;-63
2023/03/14 00:17:50;;;;;;;8.30;2.23;;;10.20;99.90;;;;;;5033402;28;20725;-63
2023/03/14 00:20:19;;;;;;;5.33;2.00;;;10.20;99.90;;;;;;5033377;28;20219;-63
2023/03/14 00:22:47;;;;;;;13.57;2.63;;;10.30;99.90;;;;;;5033436;28;20221;-63
2023/03/14 00:25:16;;;;;;;13.07;2.70;;;10.30;99.90;;;;;;5034135;28;20221;-63
2023/03/14 00:27:45;;;;;;;12.07;3.00;;;10.40;99.90;;;;;;5032948;28;20225;-63
2023/03/14 00:30:13;;;;;;;14.93;2.90;;;10.40;99.90;;;;;;5033238;28;20225;-63
2023/03/14 00:32:43;;;;;;;9.17;2.40;;;10.40;99.90;;;;;;5033313;28;20629;-63
2023/03/14 00:35:11;;;;;;;8.40;2.40;;;10.40;99.90;;;;;;5033127;28;20224;-63
2023/03/14 00:37:39;;;;;;;5.93;2.50;;;10.30;99.90;;;;;;5032945;28;20205;-63
2023/03/14 00:40:11;;;;;;;8.93;2.90;;;10.20;99.90;;;;;;5034003;28;20287;-63
2023/03/14 00:42:39;;;;;;;6.47;2.63;;;10.20;99.90;;;;;;5033505;28;20240;-63
2023/03/14 00:45:09;;;;;;;9.13;2.30;;;10.10;99.90;;;;;;5033074;28;20229;-63
2023/03/14 00:47:38;;;;;;;6.63;2.50;;;10.10;99.90;;;;;;5015623;28;20221;-63
2023/03/14 00:50:09;;;;;;;9.13;2.80;;;10.00;99.90;;;;;;5033304;28;20236;-63
2023/03/14 00:52:37;;;;;;;8.87;2.30;;;10.00;99.90;;;;;;5032935;28;20640;-63
2023/03/14 00:58:48;;;;;;;12.40;3.10;;;9.90;99.90;;;;;;5032866;28;20683;-63
2023/03/14 01:01:19;;;;;;;12.90;2.87;;;9.90;99.90;;;;;;5033430;28;20194;-63
2023/03/14 01:03:48;;;;;;;7.50;2.40;;;9.80;99.90;;;;;;5018142;28;20684;-63
2023/03/14 01:06:19;;;;;;;8.73;3.00;;;9.80;99.90;;;;;;5028656;28;20275;-63
2023/03/14 01:08:50;;;;;;;6.70;2.13;;;9.90;99.90;;;;;;5032860;28;20225;-63
2023/03/14 01:11:21;;;;;;;11.90;2.60;;;9.80;99.90;;;;;;5018355;28;20222;-63
2023/03/14 01:13:50;;;;;;;9.03;2.10;;;9.80;99.90;;;;;;5013113;28;20352;-63
2023/03/14 01:16:19;;;;;;;8.87;2.67;;;9.80;99.90;;;;;;5013159;28;20620;-63
2023/03/14 01:18:48;;;;;;;9.20;2.27;;;9.70;99.90;;;;;;5023218;28;20221;-63
2023/03/14 01:21:20;;;;;;;7.53;2.40;;;9.70;99.90;;;;;;5032810;28;20687;-63
2023/03/14 01:23:49;;;;;;;9.77;2.50;;;9.70;99.90;;;;;;5032698;28;20303;-63
2023/03/14 01:26:20;;;;;;;8.80;2.57;;;9.80;99.90;;;;;;5033186;28;20275;-62
2023/03/14 01:28:49;;;;;;;8.60;2.30;;;9.80;99.90;;;;;;5032679;28;20695;-63
2023/03/14 01:31:18;;;;;;;8.73;1.97;;;9.80;99.90;;;;;;5015627;28;20197;-63
2023/03/14 01:33:47;;;;;;;10.30;2.60;;;9.90;99.90;;;;;;5032669;28;20230;-63
2023/03/14 01:36:17;;;;;;;12.97;2.27;;;9.90;99.90;;;;;;5036517;28;20225;-63
2023/03/14 01:38:45;;;;;;;7.73;2.03;;;9.90;99.90;;;;;;5036448;28;20271;-63
2023/03/14 01:41:16;;;;;;;8.43;2.40;;;9.90;99.90;;;;;;5036452;28;20717;-62
2023/03/14 01:43:45;;;;;;;5.43;2.00;;;10.00;99.90;;;;;;5036134;28;20275;-62
2023/03/14 01:46:29;;;;;;;5.13;2.13;;;10.00;99.90;;;;;;5036767;28;20192;-63
2023/03/14 01:49:04;;;;;;;6.67;2.67;;;10.00;99.90;;;;;;5034178;28;20687;-63
2023/03/14 01:51:40;;;;;;;9.67;2.10;;;10.00;99.90;;;;;;5016647;28;20245;-63
2023/03/14 01:54:13;;;;;;;9.70;2.20;;;9.90;99.90;;;;;;5022059;28;20270;-63
2023/03/14 01:56:44;;;;;;;6.77;2.33;;;9.90;99.90;;;;;;5016161;28;20222;-63
2023/03/14 01:59:13;;;;;;;7.10;1.90;;;9.90;99.90;;;;;;5015781;28;20226;-63
2023/03/14 02:01:44;;;;;;;6.43;2.20;;;9.90;99.90;;;;;;5027896;28;20682;-63
2023/03/14 02:04:12;;;;;;;7.73;2.30;;;9.90;99.90;;;;;;5036355;28;20240;-62
2023/03/14 02:06:49;;;;;;;6.50;2.07;;;9.90;99.90;;;;;;5035504;28;20217;-64
2023/03/14 02:09:18;;;;;;;2.33;1.77;;;9.90;99.90;;;;;;5025837;28;20230;-63
2023/03/14 02:11:47;;;;;;;7.40;1.83;;;9.90;99.90;;;;;;5034594;28;20267;-63
2023/03/14 02:14:26;;;;;;;3.13;1.87;;;9.80;99.90;;;;;;5035473;28;20777;-63
2023/03/14 02:16:54;;;;;;;5.97;1.80;;;9.80;99.90;;;;;;5035318;28;20283;-63
2023/03/14 02:19:36;;;;;;;3.73;1.70;;;9.80;99.90;;;;;;5035888;28;20239;-62
2023/03/14 02:22:11;;;;;;;2.33;1.47;;;9.90;99.90;;;;;;5036134;28;20582;-62
2023/03/14 02:24:45;;;;;;;2.80;1.50;;;9.90;99.90;;;;;;5035382;28;20224;-63
2023/03/14 02:27:16;;;;;;;2.20;1.57;;;9.90;99.90;;;;;;5035489;28;20276;-63
2023/03/14 02:29:51;;;;;;;8.13;1.63;;;10.00;99.90;;;;;;5035451;28;20244;-63
2023/03/14 02:32:21;;;;;;;10.83;2.03;;;10.00;99.90;;;;;;5035176;28;20252;-63
2023/03/14 02:34:54;;;;;;;4.63;1.73;;;9.90;99.90;;;;;;5025967;28;20692;-63
2023/03/14 02:37:28;;;;;;;5.33;1.93;;;9.90;99.90;;;;;;5022289;28;20214;-64
2023/03/14 02:39:56;;;;;;;6.00;2.17;;;9.80;99.90;;;;;;5035351;28;20236;-62
2023/03/14 02:42:26;;;;;;;7.57;2.20;;;9.90;99.90;;;;;;5034982;28;20213;-62
2023/03/14 02:44:55;;;;;;;4.73;2.17;;;9.80;99.90;;;;;;5035026;28;20221;-62
2023/03/14 02:47:29;;;;;;;5.50;2.60;;;9.80;99.90;;;;;;5035382;28;20224;-63
2023/03/14 02:50:02;;;;;;;12.23;2.60;;;9.70;99.90;;;;;;5035254;28;20221;-63
2023/03/14 02:52:31;;;;;;;10.77;2.50;;;9.70;99.90;;;;;;5034902;28;20193;-63
2023/03/14 02:54:59;;;;;;;8.83;2.63;;;9.60;99.90;;;;;;5034883;28;20239;-63
2023/03/14 02:57:28;;;;;;;10.50;2.83;;;9.60;99.90;;;;;;5034393;28;20222;-63
2023/03/14 03:00:00;;;;;;;8.27;2.87;;;9.60;99.90;;;;;;5035035;28;20225;-63
2023/03/14 03:02:28;;;;;;;9.70;3.00;;;9.60;99.90;;;;;;5035028;28;20266;-62
2023/03/14 03:04:57;;;;;;;10.63;3.30;;;9.60;99.90;;;;;;5034818;28;20672;-64
2023/03/14 03:07:26;;;;;;;12.70;4.33;;;9.50;99.90;;;;;;5033766;28;20185;-63
2023/03/14 03:09:54;;;;;;;14.90;4.23;;;9.50;99.90;;;;;;5035250;28;20220;-63
2023/03/14 03:12:22;;;;;;;12.63;4.20;;;9.50;99.90;;;;;;5034654;28;20686;-63
2023/03/14 03:14:52;;;;;;;15.70;5.30;;;9.50;99.90;;;;;;5034620;28;20290;-63
2023/03/14 03:17:20;;;;;;;11.67;4.60;;;9.50;99.90;;;;;;5034852;28;20229;-63
2023/03/14 03:19:48;;;;;;;18.23;4.53;;;9.50;99.90;;;;;;5034634;28;20221;-63
2023/03/14 03:22:16;;;;;;;11.40;4.40;;;9.50;99.90;;;;;;5035325;28;20190;-63
2023/03/14 03:24:45;;;;;;;17.00;5.20;;;9.50;99.90;;;;;;5034472;28;20221;-64
2023/03/14 03:27:13;;;;;;;10.40;4.50;;;9.50;99.90;;;;;;5034259;28;20241;-64
2023/03/14 03:29:41;;;;;;;17.80;4.97;;;9.50;99.90;;;;;;5034304;28;20241;-63
2023/03/14 03:32:11;;;;;;;5.80;4.10;;;9.50;99.90;;;;;;5034377;28;20298;-63
2023/03/14 03:34:39;;;;;;;12.93;4.70;;;9.50;99.90;;;;;;5034028;28;20284;-63
2023/03/14 03:37:07;;;;;;;13.07;4.67;;;9.60;99.90;;;;;;5034923;28;20667;-63
2023/03/14 03:39:35;;;;;;;14.80;4.57;;;9.60;99.90;;;;;;5033954;28;20569;-63
2023/03/14 03:42:04;;;;;;;13.37;4.43;;;9.60;99.90;;;;;;5033654;28;20217;-63
2023/03/14 03:44:32;;;;;;;10.30;4.37;;;9.60;99.90;;;;;;5034135;28;20229;-63
2023/03/14 03:47:00;;;;;;;15.07;4.70;;;9.70;99.90;;;;;;5034370;28;20220;-63
2023/03/14 03:49:31;;;;;;;11.30;4.80;;;9.80;99.90;;;;;;5034116;28;20208;-63
2023/03/14 03:52:00;;;;;;;13.17;4.37;;;9.70;99.90;;;;;;5034310;28;20201;-63
2023/03/14 03:54:29;;;;;;;7.77;4.03;;;9.70;99.90;;;;;;5033750;28;20248;-63
2023/03/14 03:56:57;;;;;;;11.73;4.40;;;9.80;99.90;;;;;;5033637;28;20758;-63
2023/03/14 03:59:26;;;;;;;10.93;4.03;;;9.80;99.90;;;;;;5033505;28;20244;-63
2023/03/14 04:01:54;;;;;;;9.30;4.20;;;9.80;99.90;;;;;;5033882;28;20630;-63
2023/03/14 04:04:22;;;;;;;10.53;3.77;;;9.80;99.90;;;;;;5016228;28;20606;-63
2023/03/14 04:06:52;;;;;;;5.73;3.40;;;9.80;99.90;;;;;;5034129;28;20189;-63
2023/03/14 04:09:20;;;;;;;10.57;3.40;;;9.80;99.90;;;;;;5033460;28;20564;-63
2023/03/14 04:11:49;;;;;;;7.57;3.70;;;9.80;99.90;;;;;;5033778;28;20268;-63
2023/03/14 04:14:17;;;;;;;9.47;3.73;;;9.80;99.90;;;;;;5033523;28;20221;-63
2023/03/14 04:16:45;;;;;;;11.23;4.63;;;9.80;99.90;;;;;;5033581;28;20221;-63
2023/03/14 04:19:13;;;;;;;8.33;4.30;;;9.80;99.90;;;;;;5033999;28;20221;-63
2023/03/14 04:21:44;;;;;;;12.30;3.90;;;9.80;99.90;;;;;;5033526;28;20217;-63
2023/03/14 04:24:14;;;;;;;8.10;3.90;;;9.80;99.90;;;;;;5033322;28;20217;-64
2023/03/14 04:26:42;;;;;;;9.07;4.17;;;9.80;99.90;;;;;;5033178;28;20221;-63
2023/03/14 04:29:10;;;;;;;9.63;4.33;;;9.80;99.90;;;;;;5033208;28;20761;-64
2023/03/14 04:31:40;;;;;;;6.03;3.90;;;9.80;99.90;;;;;;5015180;28;20200;-63
2023/03/14 04:34:08;;;;;;;6.57;3.67;;;9.80;99.90;;;;;;5033725;28;20189;-63
2023/03/14 04:36:36;;;;;;;5.03;4.23;;;9.80;99.90;;;;;;5032919;28;20278;-63
2023/03/14 04:39:07;;;;;;;9.07;3.60;;;9.80;99.90;;;;;;5032848;28;20232;-64
2023/03/14 04:45:18;;;;;;;8.07;4.07;;;10.00;99.90;;;;;;5031844;28;20243;-64
2023/03/14 04:47:47;;;;;;;7.03;4.00;;;9.90;99.90;;;;;;5033063;28;20217;-63
2023/03/14 04:50:15;;;;;;;8.67;4.00;;;9.90;99.90;;;;;;5032797;28;20229;-63
2023/03/14 04:52:43;;;;;;;7.10;4.30;;;9.90;99.90;;;;;;5032933;28;20216;-63
2023/03/14 04:55:11;;;;;;;13.20;4.83;;;9.90;99.90;;;;;;5033485;28;20624;-63
2023/03/14 04:57:39;;;;;;;11.23;5.20;;;9.90;99.90;;;;;;5032313;28;20286;-63
2023/03/14 05:00:09;;;;;;;7.07;4.30;;;9.90;99.90;;;;;;5032786;28;20291;-63
2023/03/14 05:02:39;;;;;;;9.33;4.93;;;9.90;99.90;;;;;;5033043;28;20687;-63
2023/03/14 05:05:07;;;;;;;6.17;4.60;;;9.90;99.90;;;;;;5033119;28;20613;-63
2023/03/14 05:07:36;;;;;;;6.67;4.73;;;9.90;99.90;;;;;;5032959;28;20193;-63
2023/03/14 05:10:04;;;;;;;7.00;4.53;;;9.90;99.90;;;;;;5035951;28;20186;-63
2023/03/14 05:12:32;;;;;;;8.37;4.53;;;9.90;99.90;;;;;;5037077;28;20283;-63
2023/03/14 05:15:01;;;;;;;5.50;4.17;;;9.90;99.90;;;;;;5036793;28;20274;-64
2023/03/14 05:17:30;;;;;;;7.73;4.40;;;9.90;99.90;;;;;;5036884;28;20221;-63
2023/03/14 05:20:00;;;;;;;8.97;4.30;;;10.00;99.90;;;;;;5036837;28;20225;-63
2023/03/14 05:22:28;;;;;;;6.67;3.80;;;9.90;99.90;;;;;;5036676;28;20193;-63
2023/03/14 05:24:58;;;;;;;3.40;3.13;;;10.00;99.90;;;;;;5037753;28;20189;-63
2023/03/14 05:27:27;;;;;;;5.63;3.20;;;10.00;99.90;;;;;;5036536;28;20591;-63
2023/03/14 05:29:56;;;;;;;3.03;2.87;;;10.00;99.90;;;;;;5036441;28;20225;-63
2023/03/14 05:32:24;;;;;;;2.77;2.63;;;10.00;99.90;;;;;;5036457;28;20267;-64
2023/03/14 05:34:53;;;;;;;5.40;2.40;;;10.00;99.90;;;;;;5036474;28;20213;-64
2023/03/14 05:37:22;;;;;;;4.53;2.90;;;10.10;99.90;;;;;;5036894;28;20652;-63
2023/03/14 05:39:50;;;;;;;2.57;2.47;;;10.10;99.90;;;;;;5036096;28;20252;-63
2023/03/14 05:42:18;;;;;;;3.07;2.70;;;10.10;99.90;;;;;;5035869;28;20248;-64
2023/03/14 05:44:47;;;;;;;3.80;2.30;;;10.20;99.90;;;;;;5036073;28;20646;-64
2023/03/14 05:47:15;;;;;;;2.63;2.27;;;10.10;99.90;;;;;;5035969;28;20221;-63
2023/03/14 05:49:43;;;;;;;2.73;2.63;;;10.10;99.90;;;;;;5036024;28;20678;-64
2023/03/14 05:52:11;;;;;;;2.53;2.33;;;10.00;99.90;;;;;;5036225;28;20189;-64
2023/03/14 05:54:41;;;;;;;2.83;2.63;;;10.00;99.90;;;;;;5035622;28;20221;-63
2023/03/14 05:57:09;;;;;;;3.30;3.00;;;9.90;99.90;;;;;;5017995;28;20217;-65
2023/03/14 05:59:38;;;;;;;5.13;2.87;;;9.90;99.90;;;;;;5035236;28;20708;-65
2023/03/14 06:02:07;;;;;;;4.30;2.77;;;9.90;99.90;;;;;;5035488;28;20222;-64
2023/03/14 06:04:36;;;;;;;2.90;2.77;;;9.80;99.90;;;;;;5035737;28;20202;-64
2023/03/14 06:07:04;;;;;;;2.70;2.60;;;9.80;99.90;;;;;;5036216;28;20255;-64
2023/03/14 06:09:32;;;;;;;6.00;2.63;;;9.80;99.90;;;;;;5035554;28;20609;-65
2023/03/14 06:12:02;;;;;;;5.90;3.43;;;9.80;99.90;;;;;;5035470;28;20275;-65
2023/03/14 06:14:30;;;;;;;3.83;3.50;;;9.70;99.90;;;;;;5035433;28;20280;-65
2023/03/14 06:16:59;;;;;;;6.90;4.27;;;9.40;99.90;;;;;;5035403;28;20263;-65
2023/03/14 06:19:28;;;;;;;4.40;3.80;;;9.20;99.90;;;;;;5034100;28;20214;-64
2023/03/14 06:21:56;;;;;;;4.73;3.93;;;8.90;99.90;;;;;;5035765;28;20263;-64
2023/03/14 06:24:24;;;;;;;3.70;3.40;;;8.80;99.90;;;;;;5035434;28;20248;-64
2023/03/14 06:26:52;;;;;;;6.37;4.00;;;8.60;99.90;;;;;;5035258;28;20271;-64
2023/03/14 06:29:22;;;;;;;6.83;3.60;;;8.40;99.90;;;;;;5035170;28;20582;-64
2023/03/14 06:31:50;;;;;;;5.63;3.70;;;8.40;99.90;;;;;;5035263;28;20762;-65
2023/03/14 06:34:18;;;;;;;4.70;3.07;;;8.30;99.90;;;;;;5035936;28;20553;-63
2023/03/14 06:36:47;;;;;;;4.13;3.27;;;8.30;99.90;;;;;;5035121;28;20267;-64
2023/03/14 06:39:15;;;;;;;3.27;3.00;;;8.20;99.90;;;;;;5035122;28;20569;-64
2023/03/14 06:41:43;;;;;;;4.47;2.40;;;8.00;99.90;;;;;;5050787;28;20221;-64
2023/03/14 06:47:53;;;;;;;5.27;2.97;;;7.80;99.90;;;;;;5034988;28;20294;-64
2023/03/14 06:50:22;;;;;;;3.07;2.77;;;7.70;99.90;;;;;;5035112;28;20692;-64
2023/03/14 06:52:50;;;;;;;4.73;2.80;;;7.60;99.90;;;;;;5034871;28;20245;-64
2023/03/14 06:55:19;;;;;;;6.77;3.93;;;7.60;99.90;;;;;;5035531;28;20551;-64
2023/03/14 06:57:49;;;;;;;4.30;2.93;;;7.50;99.90;;;;;;5035102;28;20202;-64
2023/03/14 07:00:18;;;;;;;4.77;4.27;;;7.50;99.90;;;;;;5034879;28;20225;-64
2023/03/14 07:02:49;;;;;;;7.43;4.00;;;7.50;99.90;;;;;;5034636;28;20237;-65
2023/03/14 07:05:18;;;;;;;8.07;4.70;;;7.50;99.90;;;;;;5034847;28;20275;-64
2023/03/14 07:07:47;;;;;;;8.27;4.57;;;7.50;99.90;;;;;;5034366;28;20221;-65
2023/03/14 07:10:15;;;;;;;14.77;7.10;;;7.50;99.90;;;;;;5035558;28;20181;-64
2023/03/14 07:12:43;;;;;;;16.13;6.77;;;7.50;99.90;;;;;;5034795;28;20247;-64
2023/03/14 07:15:12;;;;;;;6.17;4.00;;;7.40;99.90;;;;;;5034499;28;20221;-64
2023/03/14 07:17:47;;;;;;;11.57;4.97;;;7.40;99.90;;;;;;5034379;28;20220;-64
2023/03/14 07:20:18;;;;;;;9.97;5.00;;;7.40;99.90;;;;;;5034946;28;20225;-64
2023/03/14 07:22:49;;;;;;;15.23;6.47;;;7.30;99.90;;;;;;5034534;28;20228;-64
2023/03/14 07:25:17;;;;;;;21.60;8.07;;;7.30;99.90;;;;;;5035119;28;20284;-64
2023/03/14 07:27:46;;;;;;;24.63;9.20;;;7.30;99.90;;;;;;5034239;28;20225;-64
2023/03/14 07:30:15;;;;;;;14.90;7.57;;;7.30;99.90;;;;;;5034218;28;20308;-64
2023/03/14 07:32:43;;;;;;;13.60;6.63;;;7.30;99.90;;;;;;5033364;28;20264;-64
2023/03/14 07:35:11;;;;;;;15.87;7.57;;;7.40;99.90;;;;;;5034281;28;20684;-63
2023/03/14 07:37:41;;;;;;;8.97;5.70;;;7.40;99.90;;;;;;5033912;28;20243;-64
2023/03/14 07:40:14;;;;;;;21.77;6.53;;;7.40;99.90;;;;;;5034715;28;20272;-64
2023/03/14 07:42:43;;;;;;;22.40;8.37;;;7.40;99.90;;;;;;5034295;28;20228;-64
2023/03/14 07:45:12;;;;;;;9.93;6.10;;;7.40;99.90;;;;;;5034163;28;20636;-64
2023/03/14 07:47:40;;;;;;;8.70;5.83;;;7.40;99.90;;;;;;5033891;28;20225;-64
2023/03/14 07:50:10;;;;;;;17.00;6.33;;;7.40;99.90;;;;;;5033502;28;20218;-64
2023/03/14 07:52:38;;;;;;;9.27;5.77;;;7.40;99.90;;;;;;5034066;28;20185;-64
2023/03/14 07:55:09;;;;;;;10.83;5.30;;;7.40;99.90;;;;;;5035037;28;20702;-65
2023/03/14 07:57:37;;;;;;;11.00;5.63;;;7.30;99.90;;;;;;5033662;28;20221;-64
2023/03/14 08:00:07;;;;;;;11.93;4.73;;;7.30;99.90;;;;;;5033735;28;20229;-64
2023/03/14 08:02:36;;;;;;;5.43;3.60;;;7.30;99.90;;;;;;5033808;28;20294;-64
2023/03/14 08:05:05;;;;;;;8.27;3.77;;;7.30;99.90;;;;;;5033466;28;20228;-64
2023/03/14 08:07:33;;;;;;;3.80;3.37;;;7.20;99.90;;;;;;5033188;28;20189;-63
2023/03/14 08:10:02;;;;;;;4.17;3.53;;;7.10;99.90;;;;;;5034431;28;20247;-64
2023/03/14 08:12:31;;;;;;;7.10;3.40;;;7.00;99.90;;;;;;5033851;28;20221;-65
2023/03/14 08:15:00;;;;;;;9.83;3.40;;;7.00;99.90;;;;;;5033742;28;20232;-63
2023/03/14 08:17:28;;;;;;;3.87;3.57;;;6.90;99.90;;;;;;5033091;28;20213;-64
2023/03/14 08:19:56;;;;;;;5.23;3.07;;;7.00;99.90;;;;;;5033218;28;20549;-64
2023/03/14 08:22:25;;;;;;;3.60;3.00;;;7.00;99.90;;;;;;5033147;28;20544;-64
2023/03/14 08:24:53;;;;;;;3.33;2.90;;;7.00;99.90;;;;;;5033770;28;20243;-64
2023/03/14 08:27:21;;;;;;;5.97;3.03;;;7.00;99.90;;;;;;5033481;28;20221;-63
2023/03/14 08:29:51;;;;;;;5.27;3.50;;;7.00;99.90;;;;;;5033398;28;20221;-63
2023/03/14 08:32:20;;;;;;;4.77;3.30;;;7.00;99.90;;;;;;5033449;28;20233;-63
2023/03/14 08:34:48;;;;;;;6.73;3.27;;;7.00;99.90;;;;;;5033737;28;20217;-64
2023/03/14 08:37:16;;;;;;;5.83;3.70;;;7.00;99.90;;;;;;5033365;28;20640;-63
2023/03/14 08:39:53;;;;;;;6.27;3.70;;;7.10;99.90;;;;;;5033518;28;20209;-63
2023/03/14 08:42:22;;;;;;;6.57;3.63;;;7.20;99.90;;;;;;5033208;28;20231;-63
2023/03/14 08:44:52;;;;;;;8.23;3.70;;;7.40;99.90;;;;;;5032524;28;20217;-64
2023/03/14 08:47:20;;;;;;;6.70;3.77;;;7.40;99.90;;;;;;5033110;28;20217;-63
2023/03/14 08:49:49;;;;;;;6.00;3.70;;;7.40;99.90;;;;;;5033467;28;20617;-63
2023/03/14 08:52:17;;;;;;;9.47;4.10;;;7.30;99.90;;;;;;5033447;28;20284;-63
2023/03/14 08:54:45;;;;;;;14.37;6.13;;;7.20;99.90;;;;;;5033700;28;20243;-63
2023/03/14 08:57:14;;;;;;;11.43;3.97;;;7.20;99.90;;;;;;5015060;28;20229;-63
2023/03/14 08:59:42;;;;;;;12.17;4.30;;;7.20;99.90;;;;;;5032777;28;20229;-64
2023/03/14 09:02:12;;;;;;;14.10;4.50;;;7.20;99.90;;;;;;5033087;28;20230;-63
2023/03/14 09:04:41;;;;;;;19.17;4.73;;;7.20;99.90;;;;;;5033280;28;20174;-63
2023/03/14 09:07:09;;;;;;;10.77;4.40;;;7.30;99.90;;;;;;5033184;28;20620;-64
2023/03/14 09:09:37;;;;;;;10.47;4.27;;;7.50;99.90;;;;;;5032851;28;20646;-63
2023/03/14 09:12:06;;;;;;;11.57;4.17;;;7.50;99.90;;;;;;5032915;28;20240;-63
2023/03/14 09:14:35;;;;;;;12.50;4.30;;;7.50;99.90;;;;;;5033018;28;20232;-63
2023/03/14 09:17:04;;;;;;;13.07;3.93;;;7.50;99.90;;;;;;5032763;28;20228;-63
2023/03/14 09:19:34;;;;;;;8.87;3.70;;;7.70;99.90;;;;;;5032323;28;20243;-63
2023/03/14 09:22:03;;;;;;;13.23;4.40;;;7.70;99.90;;;;;;5033530;28;20572;-63
2023/03/14 09:24:31;;;;;;;12.70;5.37;;;7.70;99.90;;;;;;5032572;28;20603;-63
2023/03/14 09:27:00;;;;;;;10.37;4.17;;;7.60;99.90;;;;;;5032626;28;20282;-63
2023/03/14 09:29:28;;;;;;;11.27;3.67;;;7.50;99.90;;;;;;5032933;28;20591;-63
2023/03/14 09:31:58;;;;;;;12.67;4.63;;;7.50;99.90;;;;;;5033082;28;20221;-62
2023/03/14 09:34:27;;;;;;;3.57;3.27;;;7.50;99.90;;;;;;5033176;28;20277;-63
2023/03/14 09:36:57;;;;;;;6.77;3.67;;;7.40;99.90;;;;;;5033210;28;20194;-62
2023/03/14 09:39:25;;;;;;;10.67;3.30;;;7.40;99.90;;;;;;5032617;28;20283;-62
2023/03/14 09:41:56;;;;;;;13.23;3.60;;;7.40;99.90;;;;;;5032375;28;20253;-63
2023/03/14 09:44:28;;;;;;;7.93;2.77;;;7.40;99.90;;;;;;5032543;28;20275;-63
2023/03/14 09:47:01;;;;;;;12.23;3.47;;;7.50;99.90;;;;;;5032719;28;20221;-62
2023/03/14 09:49:33;;;;;;;8.87;2.90;;;7.60;99.90;;;;;;5032428;28;20660;-62
2023/03/14 09:52:14;;;;;;;7.23;3.10;;;7.70;99.90;;;;;;5032811;28;20220;-62
2023/03/14 09:54:45;;;;;;;8.23;2.73;;;7.70;99.90;;;;;;5032158;28;20217;-63
2023/03/14 09:57:17;;;;;;;7.33;2.80;;;7.80;99.90;;;;;;5036017;28;20696;-62
2023/03/14 09:59:47;;;;;;;9.53;3.30;;;7.80;99.90;;;;;;5035644;28;20287;-63
2023/03/14 10:02:18;;;;;;;5.40;2.90;;;7.90;99.90;;;;;;5036045;28;20283;-63
2023/03/14 10:04:47;;;;;;;7.97;2.53;;;7.80;99.90;;;;;;5036247;28;20221;-62
2023/03/14 10:07:19;;;;;;;10.10;2.60;;;7.80;99.90;;;;;;5018652;28;20198;-62
2023/03/14 10:09:50;;;;;;;5.60;2.83;;;7.60;99.90;;;;;;5036088;28;20205;-63
2023/03/14 10:12:20;;;;;;;10.10;2.63;;;7.50;99.90;;;;;;5035795;28;20206;-63
2023/03/14 10:14:51;;;;;;;13.57;2.53;;;7.60;99.90;;;;;;5031593;28;20218;-63
2023/03/14 10:17:21;;;;;;;8.80;2.83;;;7.50;99.90;;;;;;5035487;28;20275;-63
2023/03/14 10:19:55;;;;;;;11.63;2.93;;;7.40;99.90;;;;;;5035489;28;20699;-62
2023/03/14 10:22:28;;;;;;;14.90;3.10;;;7.30;99.90;;;;;;5035496;28;20193;-62
2023/03/14 10:24:59;;;;;;;7.53;2.40;;;7.20;99.90;;;;;;5036148;28;20239;-62
2023/03/14 10:27:31;;;;;;;7.77;3.33;;;7.20;99.90;;;;;;5035529;28;20225;-62
2023/03/14 10:30:00;;;;;;;6.10;2.43;;;7.20;99.90;;;;;;5035460;28;20225;-63
2023/03/14 10:32:33;;;;;;;11.17;2.70;;;7.10;99.90;;;;;;5034040;28;20613;-63
2023/03/14 10:35:20;;;;;;;13.83;2.77;;;7.10;99.90;;;;;;5035489;28;20229;-63
2023/03/14 10:37:54;;;;;;;7.63;2.30;;;7.10;99.90;;;;;;5034272;28;20275;-63
2023/03/14 10:40:28;;;;;;;2.97;2.07;;;7.20;99.90;;;;;;5035602;28;20200;-63
2023/03/14 10:42:59;;;;;;;5.33;2.00;;;7.10;99.90;;;;;;5036050;28;20193;-63
2023/03/14 10:45:33;;;;;;;3.33;1.87;;;7.10;99.90;;;;;;5033821;28;20229;-63
2023/03/14 10:48:19;;;;;;;3.60;1.90;;;7.00;99.90;;;;;;5034939;28;20225;-64
2023/03/14 10:50:56;;;;;;;4.57;1.70;;;6.90;99.90;;;;;;5035265;28;20267;-63
2023/03/14 10:53:27;;;;;;;4.60;1.73;;;6.90;99.90;;;;;;5035105;28;20221;-63
2023/03/14 10:55:57;;;;;;;5.07;2.03;;;6.90;99.90;;;;;;5035132;28;20225;-63
2023/03/14 10:58:27;;;;;;;1.40;1.30;;;6.90;99.90;;;;;;5034427;28;20233;-63
2023/03/14 11:01:13;;;;;;;1.70;1.60;;;6.80;99.90;;;;;;5018248;28;20209;-64
2023/03/14 11:03:48;;;;;;;1.83;1.70;;;6.70;99.90;;;;;;5034811;28;20224;-63
2023/03/14 11:06:24;;;;;;;5.77;1.77;;;6.70;99.90;;;;;;5034363;28;20232;-63
2023/03/14 11:09:05;;;;;;;1.40;1.40;;;6.60;99.90;;;;;;5034682;28;20749;-63
2023/03/14 11:11:33;;;;;;;4.93;1.80;;;6.60;99.90;;;;;;5034757;28;20269;-63
2023/03/14 11:14:13;;;;;;;4.17;2.03;;;6.60;99.90;;;;;;5034494;28;20591;-64
2023/03/14 11:16:54;;;;;;;3.67;1.90;;;6.60;99.90;;;;;;5034340;28;20178;-64
2023/03/14 11:19:49;;;;;;;5.00;1.90;;;6.50;99.90;;;;;;5034604;28;20194;-64
2023/03/14 11:22:24;;;;;;;2.17;1.60;;;6.40;99.90;;;;;;5034754;28;20209;-64
2023/03/14 11:25:10;;;;;;;3.30;1.90;;;6.30;99.90;;;;;;5034711;28;20205;-63
2023/03/14 11:27:43;;;;;;;1.40;1.30;;;6.30;99.90;;;;;;5034314;28;20596;-63
2023/03/14 11:30:22;;;;;;;2.70;1.70;;;6.20;99.90;;;;;;5034522;28;20217;-64
2023/03/14 11:32:57;;;;;;;2.10;1.70;;;6.20;99.90;;;;;;5034540;28;20221;-64
2023/03/14 11:35:31;;;;;;;2.67;1.73;;;6.30;99.90;;;;;;5034142;28;20234;-64
2023/03/14 11:38:10;;;;;;;2.67;1.73;;;6.30;99.90;;;;;;5034078;28;20231;-63
2023/03/14 11:40:41;;;;;;;1.67;1.67;;;6.30;99.90;;;;;;5033946;28;20192;-63
2023/03/14 11:43:14;;;;;;;3.40;1.93;;;6.40;99.90;;;;;;5034693;28;20202;-63
2023/03/14 11:45:44;;;;;;;2.00;1.80;;;6.40;99.90;;;;;;5032668;28;20272;-63
2023/03/14 11:48:29;;;;;;;3.67;2.00;;;6.40;99.90;;;;;;5033811;28;20275;-63
2023/03/14 11:51:00;;;;;;;2.20;2.00;;;6.50;99.90;;;;;;5034310;28;20279;-63
2023/03/14 11:53:40;;;;;;;5.13;2.37;;;6.50;99.90;;;;;;5033874;28;20572;-63
2023/03/14 11:56:19;;;;;;;3.97;1.90;;;6.60;99.90;;;;;;5034120;28;20271;-63
2023/03/14 11:58:55;;;;;;;3.73;2.20;;;6.60;99.90;;;;;;5033491;28;20245;-64
2023/03/14 12:01:28;;;;;;;5.07;2.30;;;6.70;99.90;;;;;;5033923;28;20197;-63
2023/03/14 12:04:03;;;;;;;6.83;2.50;;;6.60;99.90;;;;;;5034062;28;20752;-64
2023/03/14 12:06:39;;;;;;;2.83;2.50;;;6.60;99.90;;;;;;5033938;28;20221;-63
2023/03/14 12:09:09;;;;;;;6.60;2.50;;;6.50;99.90;;;;;;5033779;28;20279;-63
2023/03/14 12:11:44;;;;;;;2.83;2.57;;;6.50;99.90;;;;;;5033293;28;20229;-64
2023/03/14 12:14:22;;;;;;;4.63;2.67;;;6.50;99.90;;;;;;5033565;28;20287;-63
2023/03/14 12:20:32;;;;;;;2.97;2.30;;;6.50;99.90;;;;;;5033231;28;20217;-63
2023/03/14 12:23:05;;;;;;;5.83;2.47;;;6.50;99.90;;;;;;5033464;28;20730;-63
2023/03/14 12:25:34;;;;;;;7.10;2.57;;;6.50;99.90;;;;;;5015910;28;20526;-64
2023/03/14 12:28:20;;;;;;;4.97;2.30;;;6.50;99.90;;;;;;5033735;28;20213;-64
2023/03/14 12:30:48;;;;;;;9.80;3.00;;;6.60;99.90;;;;;;5033643;28;20208;-63
2023/03/14 12:33:31;;;;;;;8.17;2.57;;;6.60;99.90;;;;;;5033490;28;20237;-63
2023/03/14 12:36:11;;;;;;;12.33;3.30;;;6.60;99.90;;;;;;5033534;28;20687;-64
2023/03/14 12:38:57;;;;;;;8.87;2.93;;;6.60;99.90;;;;;;5033243;28;20220;-64
2023/03/14 12:41:30;;;;;;;6.60;2.63;;;6.70;99.90;;;;;;5033307;28;20220;-63
2023/03/14 12:44:40;;;;;;;8.13;2.40;;;6.70;99.90;;;;;;5032940;28;20220;-64
2023/03/14 12:47:41;;;;;;;11.83;3.00;;;6.70;99.90;;;;;;5033443;28;20232;-64
2023/03/14 12:50:16;;;;;;;13.77;3.53;;;6.80;99.90;;;;;;5033064;28;20224;-63
2023/03/14 12:52:56;;;;;;;15.43;3.00;;;6.90;99.90;;;;;;5033056;28;20229;-63
2023/03/14 12:55:34;;;;;;;17.07;3.30;;;6.90;99.90;;;;;;5033873;28;20586;-64
2023/03/14 12:58:08;;;;;;;15.53;3.10;;;7.00;99.90;;;;;;5033184;28;20278;-64
2023/03/14 13:00:41;;;;;;;13.43;3.07;;;7.10;99.90;;;;;;5032907;28;20228;-65
2023/03/14 13:03:22;;;;;;;11.33;3.30;;;7.10;99.90;;;;;;5015492;28;20217;-66
2023/03/14 13:05:54;;;;;;;9.40;3.13;;;7.20;99.90;;;;;;5032717;28;20229;-63
2023/03/14 13:08:38;;;;;;;16.83;3.40;;;7.20;99.90;;;;;;5032952;28;20264;-63
2023/03/14 13:11:11;;;;;;;16.73;3.17;;;7.20;99.90;;;;;;5031856;28;20252;-62
2023/03/14 13:13:45;;;;;;;24.97;3.77;;;7.10;99.90;;;;;;5033562;28;20232;-63
2023/03/14 13:16:19;;;;;;;16.47;3.33;;;7.10;99.90;;;;;;5033278;28;20227;-63
2023/03/14 13:18:48;;;;;;;15.53;4.33;;;7.10;99.90;;;;;;5033284;28;20208;-63
2023/03/14 13:21:20;;;;;;;24.23;4.93;;;7.00;99.90;;;;;;5015538;28;20221;-65
2023/03/14 13:23:59;;;;;;;21.80;4.40;;;6.90;99.90;;;;;;5032680;28;20708;-65
2023/03/14 13:26:35;;;;;;;15.83;4.33;;;6.90;99.90;;;;;;5032719;28;20707;-65